sensor_id;sensor_type;location;lat;lon;timestamp;P1;durP1;ratioP1;P2;durP2;ratioP2
9467;SDS011;4772;52.382;9.752;2024-01-30T00:00:53;12.83;;;9.27;;
9467;SDS011;4772;52.382;9.752;2024-01-30T00:03:19;13.07;;;9.80;;
9467;SDS011;4772;52.382;9.752;2024-01-30T00:05:45;11.77;;;9.60;;
9467;SDS011;4772;52.382;9.752;2024-01-30T00:08:11;10.83;;;8.90;;
9467;SDS011;4772;52.382;9.752;2024-01-30T00:10:37;13.83;;;9.17;;
9467;SDS011;4772;52.382;9.752;2024-01-30T00:13:03;10.13;;;8.77;;
9467;SDS011;4772;52.382;9.752;2024-01-30T00:15:29;11.47;;;8.87;;
9467;SDS011;4772;52.382;9.752;2024-01-30T00:17:55;14.23;;;9.43;;
9467;SDS011;4772;52.382;9.752;2024-01-30T00:20:21;13.07;;;9.60;;
9467;SDS011;4772;52.382;9.752;2024-01-30T00:22:48;11.50;;;9.60;;
9467;SDS011;4772;52.382;9.752;2024-01-30T00:25:14;12.27;;;9.27;;
9467;SDS011;4772;52.382;9.752;2024-01-30T00:27:40;14.03;;;9.60;;
9467;SDS011;4772;52.382;9.752;2024-01-30T00:30:06;11.37;;;9.73;;
9467;SDS011;4772;52.382;9.752;2024-01-30T00:32:32;14.50;;;9.90;;
9467;SDS011;4772;52.382;9.752;2024-01-30T00:34:58;12.07;;;9.30;;
9467;SDS011;4772;52.382;9.752;2024-01-30T00:37:24;14.47;;;9.83;;
9467;SDS011;4772;52.382;9.752;2024-01-30T00:39:50;12.40;;;10.03;;
9467;SDS011;4772;52.382;9.752;2024-01-30T00:42:16;13.73;;;9.70;;
9467;SDS011;4772;52.382;9.752;2024-01-30T00:44:42;12.47;;;10.20;;
9467;SDS011;4772;52.382;9.752;2024-01-30T00:47:08;13.70;;;10.53;;
9467;SDS011;4772;52.382;9.752;2024-01-30T00:49:34;12.50;;;10.27;;
9467;SDS011;4772;52.382;9.752;2024-01-30T00:52:00;14.90;;;11.07;;
9467;SDS011;4772;52.382;9.752;2024-01-30T00:54:26;13.80;;;10.30;;
9467;SDS011;4772;52.382;9.752;2024-01-30T00:56:52;19.13;;;10.23;;
9467;SDS011;4772;52.382;9.752;2024-01-30T00:59:18;13.13;;;9.90;;
9467;SDS011;4772;52.382;9.752;2024-01-30T01:01:44;13.70;;;10.13;;
9467;SDS011;4772;52.382;9.752;2024-01-30T01:04:10;12.87;;;9.80;;
9467;SDS011;4772;52.382;9.752;2024-01-30T01:06:36;13.33;;;10.03;;
9467;SDS011;4772;52.382;9.752;2024-01-30T01:09:02;10.37;;;9.23;;
9467;SDS011;4772;52.382;9.752;2024-01-30T01:11:29;12.93;;;9.40;;
9467;SDS011;4772;52.382;9.752;2024-01-30T01:13:55;13.43;;;9.10;;
9467;SDS011;4772;52.382;9.752;2024-01-30T01:16:21;12.87;;;9.73;;
9467;SDS011;4772;52.382;9.752;2024-01-30T01:18:47;12.13;;;9.60;;
9467;SDS011;4772;52.382;9.752;2024-01-30T01:21:13;13.87;;;9.17;;
9467;SDS011;4772;52.382;9.752;2024-01-30T01:23:39;11.10;;;9.83;;
9467;SDS011;4772;52.382;9.752;2024-01-30T01:26:05;11.33;;;8.83;;
9467;SDS011;4772;52.382;9.752;2024-01-30T01:28:31;14.47;;;10.10;;
9467;SDS011;4772;52.382;9.752;2024-01-30T01:30:57;14.20;;;10.23;;
9467;SDS011;4772;52.382;9.752;2024-01-30T01:33:29;11.67;;;10.20;;
9467;SDS011;4772;52.382;9.752;2024-01-30T01:35:57;12.00;;;9.00;;
9467;SDS011;4772;52.382;9.752;2024-01-30T01:38:23;12.10;;;9.97;;
9467;SDS011;4772;52.382;9.752;2024-01-30T01:40:49;13.97;;;10.20;;
9467;SDS011;4772;52.382;9.752;2024-01-30T01:43:16;13.40;;;10.73;;
9467;SDS011;4772;52.382;9.752;2024-01-30T01:45:42;11.70;;;9.90;;
9467;SDS011;4772;52.382;9.752;2024-01-30T01:48:08;13.10;;;9.73;;
9467;SDS011;4772;52.382;9.752;2024-01-30T01:50:34;13.13;;;9.40;;
9467;SDS011;4772;52.382;9.752;2024-01-30T01:53:01;11.63;;;10.03;;
9467;SDS011;4772;52.382;9.752;2024-01-30T01:55:27;12.73;;;9.97;;
9467;SDS011;4772;52.382;9.752;2024-01-30T01:57:55;13.70;;;10.20;;
9467;SDS011;4772;52.382;9.752;2024-01-30T02:00:21;13.80;;;9.57;;
9467;SDS011;4772;52.382;9.752;2024-01-30T02:02:47;14.97;;;10.07;;
9467;SDS011;4772;52.382;9.752;2024-01-30T02:05:15;12.20;;;9.60;;
9467;SDS011;4772;52.382;9.752;2024-01-30T02:07:42;13.57;;;10.13;;
9467;SDS011;4772;52.382;9.752;2024-01-30T02:10:08;12.40;;;9.90;;
9467;SDS011;4772;52.382;9.752;2024-01-30T02:12:37;15.63;;;10.10;;
9467;SDS011;4772;52.382;9.752;2024-01-30T02:15:04;14.07;;;9.63;;
9467;SDS011;4772;52.382;9.752;2024-01-30T02:17:30;12.33;;;10.07;;
9467;SDS011;4772;52.382;9.752;2024-01-30T02:19:56;12.47;;;9.50;;
9467;SDS011;4772;52.382;9.752;2024-01-30T02:22:22;12.83;;;9.87;;
9467;SDS011;4772;52.382;9.752;2024-01-30T02:24:49;13.90;;;10.00;;
9467;SDS011;4772;52.382;9.752;2024-01-30T02:27:15;13.93;;;9.90;;
9467;SDS011;4772;52.382;9.752;2024-01-30T02:29:41;13.67;;;9.80;;
9467;SDS011;4772;52.382;9.752;2024-01-30T02:32:07;11.80;;;9.50;;
9467;SDS011;4772;52.382;9.752;2024-01-30T02:34:33;14.70;;;10.90;;
9467;SDS011;4772;52.382;9.752;2024-01-30T02:36:59;13.67;;;10.10;;
9467;SDS011;4772;52.382;9.752;2024-01-30T02:39:26;13.20;;;9.80;;
9467;SDS011;4772;52.382;9.752;2024-01-30T02:41:52;13.57;;;10.43;;
9467;SDS011;4772;52.382;9.752;2024-01-30T02:44:18;15.57;;;9.67;;
9467;SDS011;4772;52.382;9.752;2024-01-30T02:46:44;14.40;;;10.83;;
9467;SDS011;4772;52.382;9.752;2024-01-30T02:49:10;12.60;;;10.13;;
9467;SDS011;4772;52.382;9.752;2024-01-30T02:51:36;14.20;;;10.47;;
9467;SDS011;4772;52.382;9.752;2024-01-30T02:54:02;13.07;;;9.97;;
9467;SDS011;4772;52.382;9.752;2024-01-30T02:56:28;18.40;;;10.90;;
9467;SDS011;4772;52.382;9.752;2024-01-30T02:58:54;14.37;;;10.20;;
9467;SDS011;4772;52.382;9.752;2024-01-30T03:01:20;13.30;;;10.83;;
9467;SDS011;4772;52.382;9.752;2024-01-30T03:03:46;14.33;;;10.63;;
9467;SDS011;4772;52.382;9.752;2024-01-30T03:06:12;15.20;;;10.67;;
9467;SDS011;4772;52.382;9.752;2024-01-30T03:08:40;14.40;;;10.23;;
9467;SDS011;4772;52.382;9.752;2024-01-30T03:11:06;13.83;;;10.43;;
9467;SDS011;4772;52.382;9.752;2024-01-30T03:13:32;14.60;;;10.63;;
9467;SDS011;4772;52.382;9.752;2024-01-30T03:15:58;13.90;;;10.30;;
9467;SDS011;4772;52.382;9.752;2024-01-30T03:18:24;14.93;;;10.30;;
9467;SDS011;4772;52.382;9.752;2024-01-30T03:20:50;15.10;;;9.83;;
9467;SDS011;4772;52.382;9.752;2024-01-30T03:23:16;13.73;;;10.40;;
9467;SDS011;4772;52.382;9.752;2024-01-30T03:25:41;13.23;;;9.63;;
9467;SDS011;4772;52.382;9.752;2024-01-30T03:28:10;12.57;;;9.77;;
9467;SDS011;4772;52.382;9.752;2024-01-30T03:30:37;14.13;;;10.10;;
9467;SDS011;4772;52.382;9.752;2024-01-30T03:33:03;14.77;;;9.83;;
9467;SDS011;4772;52.382;9.752;2024-01-30T03:35:29;13.77;;;10.83;;
9467;SDS011;4772;52.382;9.752;2024-01-30T03:37:55;11.77;;;9.73;;
9467;SDS011;4772;52.382;9.752;2024-01-30T03:40:21;11.97;;;9.60;;
9467;SDS011;4772;52.382;9.752;2024-01-30T03:42:47;11.67;;;9.97;;
9467;SDS011;4772;52.382;9.752;2024-01-30T03:45:13;13.67;;;10.33;;
9467;SDS011;4772;52.382;9.752;2024-01-30T03:47:39;11.27;;;9.83;;
9467;SDS011;4772;52.382;9.752;2024-01-30T03:50:05;12.53;;;9.90;;
9467;SDS011;4772;52.382;9.752;2024-01-30T03:52:31;13.33;;;10.07;;
9467;SDS011;4772;52.382;9.752;2024-01-30T03:54:57;12.57;;;9.97;;
9467;SDS011;4772;52.382;9.752;2024-01-30T03:57:23;13.63;;;9.77;;
9467;SDS011;4772;52.382;9.752;2024-01-30T03:59:49;12.40;;;9.93;;
9467;SDS011;4772;52.382;9.752;2024-01-30T04:02:15;11.13;;;9.50;;
9467;SDS011;4772;52.382;9.752;2024-01-30T04:04:41;16.17;;;10.60;;
9467;SDS011;4772;52.382;9.752;2024-01-30T04:07:07;11.83;;;9.03;;
9467;SDS011;4772;52.382;9.752;2024-01-30T04:09:33;13.87;;;9.53;;
9467;SDS011;4772;52.382;9.752;2024-01-30T04:11:59;15.03;;;10.47;;
9467;SDS011;4772;52.382;9.752;2024-01-30T04:14:25;12.83;;;9.93;;
9467;SDS011;4772;52.382;9.752;2024-01-30T04:16:51;13.50;;;9.37;;
9467;SDS011;4772;52.382;9.752;2024-01-30T04:19:17;15.43;;;9.60;;
9467;SDS011;4772;52.382;9.752;2024-01-30T04:21:42;12.53;;;9.30;;
9467;SDS011;4772;52.382;9.752;2024-01-30T04:24:08;11.87;;;9.63;;
9467;SDS011;4772;52.382;9.752;2024-01-30T04:26:35;15.77;;;9.43;;
9467;SDS011;4772;52.382;9.752;2024-01-30T04:29:01;12.17;;;9.67;;
9467;SDS011;4772;52.382;9.752;2024-01-30T04:31:27;13.27;;;9.33;;
9467;SDS011;4772;52.382;9.752;2024-01-30T04:33:53;12.47;;;9.83;;
9467;SDS011;4772;52.382;9.752;2024-01-30T04:36:19;12.70;;;9.03;;
9467;SDS011;4772;52.382;9.752;2024-01-30T04:38:45;12.03;;;9.30;;
9467;SDS011;4772;52.382;9.752;2024-01-30T04:41:12;13.40;;;9.30;;
9467;SDS011;4772;52.382;9.752;2024-01-30T04:43:38;12.63;;;9.37;;
9467;SDS011;4772;52.382;9.752;2024-01-30T04:46:04;11.87;;;9.00;;
9467;SDS011;4772;52.382;9.752;2024-01-30T04:48:30;13.53;;;9.73;;
9467;SDS011;4772;52.382;9.752;2024-01-30T04:50:57;11.03;;;8.87;;
9467;SDS011;4772;52.382;9.752;2024-01-30T04:53:23;10.30;;;8.27;;
9467;SDS011;4772;52.382;9.752;2024-01-30T04:55:49;10.20;;;9.03;;
9467;SDS011;4772;52.382;9.752;2024-01-30T04:58:15;11.30;;;9.57;;
9467;SDS011;4772;52.382;9.752;2024-01-30T05:00:41;12.87;;;9.50;;
9467;SDS011;4772;52.382;9.752;2024-01-30T05:03:07;13.83;;;9.47;;
9467;SDS011;4772;52.382;9.752;2024-01-30T05:05:33;11.67;;;9.50;;
9467;SDS011;4772;52.382;9.752;2024-01-30T05:07:59;12.33;;;9.23;;
9467;SDS011;4772;52.382;9.752;2024-01-30T05:10:25;10.47;;;9.37;;
9467;SDS011;4772;52.382;9.752;2024-01-30T05:12:53;10.67;;;8.87;;
9467;SDS011;4772;52.382;9.752;2024-01-30T05:15:19;13.00;;;9.83;;
9467;SDS011;4772;52.382;9.752;2024-01-30T05:17:45;12.30;;;9.07;;
9467;SDS011;4772;52.382;9.752;2024-01-30T05:20:11;12.47;;;8.90;;
9467;SDS011;4772;52.382;9.752;2024-01-30T05:22:37;11.20;;;9.20;;
9467;SDS011;4772;52.382;9.752;2024-01-30T05:25:09;10.10;;;8.77;;
9467;SDS011;4772;52.382;9.752;2024-01-30T05:27:35;12.70;;;9.00;;
9467;SDS011;4772;52.382;9.752;2024-01-30T05:30:01;13.33;;;9.90;;
9467;SDS011;4772;52.382;9.752;2024-01-30T05:32:27;12.60;;;9.70;;
9467;SDS011;4772;52.382;9.752;2024-01-30T05:34:53;12.50;;;9.30;;
9467;SDS011;4772;52.382;9.752;2024-01-30T05:37:19;13.63;;;9.43;;
9467;SDS011;4772;52.382;9.752;2024-01-30T05:39:45;12.33;;;9.10;;
9467;SDS011;4772;52.382;9.752;2024-01-30T05:42:11;13.40;;;9.73;;
9467;SDS011;4772;52.382;9.752;2024-01-30T05:44:37;11.60;;;8.77;;
9467;SDS011;4772;52.382;9.752;2024-01-30T05:47:03;12.23;;;9.67;;
9467;SDS011;4772;52.382;9.752;2024-01-30T05:49:29;13.97;;;9.80;;
9467;SDS011;4772;52.382;9.752;2024-01-30T05:51:55;13.57;;;9.30;;
9467;SDS011;4772;52.382;9.752;2024-01-30T05:54:21;11.80;;;8.83;;
9467;SDS011;4772;52.382;9.752;2024-01-30T05:56:47;13.73;;;9.23;;
9467;SDS011;4772;52.382;9.752;2024-01-30T05:59:13;12.93;;;9.23;;
9467;SDS011;4772;52.382;9.752;2024-01-30T06:01:45;11.47;;;9.20;;
9467;SDS011;4772;52.382;9.752;2024-01-30T06:04:11;13.70;;;9.97;;
9467;SDS011;4772;52.382;9.752;2024-01-30T06:06:37;14.73;;;10.17;;
9467;SDS011;4772;52.382;9.752;2024-01-30T06:09:03;13.70;;;8.63;;
9467;SDS011;4772;52.382;9.752;2024-01-30T06:11:29;13.63;;;9.53;;
9467;SDS011;4772;52.382;9.752;2024-01-30T06:13:55;13.17;;;9.90;;
9467;SDS011;4772;52.382;9.752;2024-01-30T06:16:21;13.60;;;9.27;;
9467;SDS011;4772;52.382;9.752;2024-01-30T06:18:47;14.70;;;9.23;;
9467;SDS011;4772;52.382;9.752;2024-01-30T06:21:13;13.40;;;8.97;;
9467;SDS011;4772;52.382;9.752;2024-01-30T06:23:39;15.33;;;9.40;;
9467;SDS011;4772;52.382;9.752;2024-01-30T06:26:08;12.37;;;9.50;;
9467;SDS011;4772;52.382;9.752;2024-01-30T06:28:35;11.27;;;8.90;;
9467;SDS011;4772;52.382;9.752;2024-01-30T06:31:01;11.87;;;9.20;;
9467;SDS011;4772;52.382;9.752;2024-01-30T06:33:27;13.90;;;9.43;;
9467;SDS011;4772;52.382;9.752;2024-01-30T06:35:53;13.17;;;9.47;;
9467;SDS011;4772;52.382;9.752;2024-01-30T06:38:19;12.90;;;9.77;;
9467;SDS011;4772;52.382;9.752;2024-01-30T06:40:45;11.73;;;9.20;;
9467;SDS011;4772;52.382;9.752;2024-01-30T06:43:11;14.40;;;9.30;;
9467;SDS011;4772;52.382;9.752;2024-01-30T06:45:37;12.07;;;9.30;;
9467;SDS011;4772;52.382;9.752;2024-01-30T06:48:03;14.20;;;9.63;;
9467;SDS011;4772;52.382;9.752;2024-01-30T06:50:29;12.47;;;9.70;;
9467;SDS011;4772;52.382;9.752;2024-01-30T06:52:55;12.63;;;9.10;;
9467;SDS011;4772;52.382;9.752;2024-01-30T06:55:21;14.00;;;9.57;;
9467;SDS011;4772;52.382;9.752;2024-01-30T06:57:47;11.30;;;9.43;;
9467;SDS011;4772;52.382;9.752;2024-01-30T07:00:13;14.63;;;10.23;;
9467;SDS011;4772;52.382;9.752;2024-01-30T07:02:40;12.20;;;9.50;;
9467;SDS011;4772;52.382;9.752;2024-01-30T07:05:06;15.17;;;9.63;;
9467;SDS011;4772;52.382;9.752;2024-01-30T07:07:32;12.00;;;9.17;;
9467;SDS011;4772;52.382;9.752;2024-01-30T07:09:58;14.97;;;9.87;;
9467;SDS011;4772;52.382;9.752;2024-01-30T07:12:24;17.50;;;11.17;;
9467;SDS011;4772;52.382;9.752;2024-01-30T07:14:51;22.03;;;13.63;;
9467;SDS011;4772;52.382;9.752;2024-01-30T07:17:17;18.23;;;11.27;;
9467;SDS011;4772;52.382;9.752;2024-01-30T07:19:43;20.77;;;12.80;;
9467;SDS011;4772;52.382;9.752;2024-01-30T07:22:09;17.13;;;11.73;;
9467;SDS011;4772;52.382;9.752;2024-01-30T07:24:35;14.27;;;9.97;;
9467;SDS011;4772;52.382;9.752;2024-01-30T07:27:01;14.73;;;9.77;;
9467;SDS011;4772;52.382;9.752;2024-01-30T07:29:27;12.07;;;9.00;;
9467;SDS011;4772;52.382;9.752;2024-01-30T07:31:53;14.47;;;9.67;;
9467;SDS011;4772;52.382;9.752;2024-01-30T07:34:19;14.63;;;10.03;;
9467;SDS011;4772;52.382;9.752;2024-01-30T07:36:45;12.07;;;9.33;;
9467;SDS011;4772;52.382;9.752;2024-01-30T07:39:12;12.83;;;9.17;;
9467;SDS011;4772;52.382;9.752;2024-01-30T07:41:38;12.27;;;9.10;;
9467;SDS011;4772;52.382;9.752;2024-01-30T07:44:04;14.33;;;9.53;;
9467;SDS011;4772;52.382;9.752;2024-01-30T07:46:30;15.03;;;8.83;;
9467;SDS011;4772;52.382;9.752;2024-01-30T07:48:55;11.83;;;8.37;;
9467;SDS011;4772;52.382;9.752;2024-01-30T07:51:22;16.97;;;9.73;;
9467;SDS011;4772;52.382;9.752;2024-01-30T07:53:48;11.43;;;8.70;;
9467;SDS011;4772;52.382;9.752;2024-01-30T15:01:26;12.43;;;8.75;;
9467;SDS011;4772;52.382;9.752;2024-01-30T15:03:52;12.27;;;8.37;;
9467;SDS011;4772;52.382;9.752;2024-01-30T15:06:18;11.57;;;8.57;;
9467;SDS011;4772;52.382;9.752;2024-01-30T15:08:44;12.90;;;7.97;;
9467;SDS011;4772;52.382;9.752;2024-01-30T15:11:10;11.90;;;8.40;;
9467;SDS011;4772;52.382;9.752;2024-01-30T15:13:36;11.47;;;8.30;;
9467;SDS011;4772;52.382;9.752;2024-01-30T15:16:02;11.47;;;7.57;;
9467;SDS011;4772;52.382;9.752;2024-01-30T15:18:30;10.73;;;7.87;;
9467;SDS011;4772;52.382;9.752;2024-01-30T15:20:56;11.77;;;8.77;;
9467;SDS011;4772;52.382;9.752;2024-01-30T15:23:23;10.73;;;8.40;;
9467;SDS011;4772;52.382;9.752;2024-01-30T15:25:49;14.47;;;8.67;;
9467;SDS011;4772;52.382;9.752;2024-01-30T15:28:15;10.70;;;8.50;;
9467;SDS011;4772;52.382;9.752;2024-01-30T15:30:42;11.83;;;8.30;;
9467;SDS011;4772;52.382;9.752;2024-01-30T15:33:09;10.03;;;8.33;;
9467;SDS011;4772;52.382;9.752;2024-01-30T15:35:35;13.43;;;8.57;;
9467;SDS011;4772;52.382;9.752;2024-01-30T15:38:02;12.73;;;8.60;;
9467;SDS011;4772;52.382;9.752;2024-01-30T15:40:28;11.00;;;8.10;;
9467;SDS011;4772;52.382;9.752;2024-01-30T15:42:54;11.47;;;8.43;;
9467;SDS011;4772;52.382;9.752;2024-01-30T15:45:20;14.17;;;8.37;;
9467;SDS011;4772;52.382;9.752;2024-01-30T15:47:46;12.90;;;8.50;;
9467;SDS011;4772;52.382;9.752;2024-01-30T15:50:12;13.60;;;8.87;;
9467;SDS011;4772;52.382;9.752;2024-01-30T15:52:38;11.27;;;8.37;;
9467;SDS011;4772;52.382;9.752;2024-01-30T15:55:04;12.57;;;8.53;;
9467;SDS011;4772;52.382;9.752;2024-01-30T15:57:30;14.67;;;9.10;;
9467;SDS011;4772;52.382;9.752;2024-01-30T15:59:56;12.30;;;8.23;;
9467;SDS011;4772;52.382;9.752;2024-01-30T16:02:22;14.40;;;8.67;;
9467;SDS011;4772;52.382;9.752;2024-01-30T16:04:48;12.17;;;8.40;;
9467;SDS011;4772;52.382;9.752;2024-01-30T16:07:15;10.20;;;8.10;;
9467;SDS011;4772;52.382;9.752;2024-01-30T16:09:41;11.43;;;8.70;;
9467;SDS011;4772;52.382;9.752;2024-01-30T16:12:08;11.80;;;8.17;;
9467;SDS011;4772;52.382;9.752;2024-01-30T16:14:34;10.33;;;8.70;;
9467;SDS011;4772;52.382;9.752;2024-01-30T16:17:01;12.00;;;9.07;;
9467;SDS011;4772;52.382;9.752;2024-01-30T16:19:27;13.07;;;8.90;;
9467;SDS011;4772;52.382;9.752;2024-01-30T16:21:53;14.07;;;8.90;;
9467;SDS011;4772;52.382;9.752;2024-01-30T16:24:19;10.47;;;8.87;;
9467;SDS011;4772;52.382;9.752;2024-01-30T16:26:48;11.47;;;8.87;;
9467;SDS011;4772;52.382;9.752;2024-01-30T16:29:14;13.37;;;9.53;;
9467;SDS011;4772;52.382;9.752;2024-01-30T16:31:40;11.83;;;8.87;;
9467;SDS011;4772;52.382;9.752;2024-01-30T16:34:06;12.10;;;9.17;;
9467;SDS011;4772;52.382;9.752;2024-01-30T16:36:32;13.83;;;9.17;;
9467;SDS011;4772;52.382;9.752;2024-01-30T16:38:58;11.87;;;9.20;;
9467;SDS011;4772;52.382;9.752;2024-01-30T16:41:24;13.67;;;9.33;;
9467;SDS011;4772;52.382;9.752;2024-01-30T16:43:53;12.73;;;8.67;;
9467;SDS011;4772;52.382;9.752;2024-01-30T16:46:19;14.73;;;8.77;;
9467;SDS011;4772;52.382;9.752;2024-01-30T16:48:46;13.17;;;9.20;;
9467;SDS011;4772;52.382;9.752;2024-01-30T16:51:12;13.67;;;9.13;;
9467;SDS011;4772;52.382;9.752;2024-01-30T16:53:38;12.17;;;8.63;;
9467;SDS011;4772;52.382;9.752;2024-01-30T16:56:04;11.37;;;8.73;;
9467;SDS011;4772;52.382;9.752;2024-01-30T16:58:30;14.40;;;9.97;;
9467;SDS011;4772;52.382;9.752;2024-01-30T17:00:56;11.77;;;9.57;;
9467;SDS011;4772;52.382;9.752;2024-01-30T17:03:22;12.37;;;9.47;;
9467;SDS011;4772;52.382;9.752;2024-01-30T17:05:48;15.27;;;9.53;;
9467;SDS011;4772;52.382;9.752;2024-01-30T17:08:19;10.90;;;9.43;;
9467;SDS011;4772;52.382;9.752;2024-01-30T17:10:45;12.27;;;9.60;;
9467;SDS011;4772;52.382;9.752;2024-01-30T17:13:11;12.83;;;9.90;;
9467;SDS011;4772;52.382;9.752;2024-01-30T17:15:37;12.27;;;10.23;;
9467;SDS011;4772;52.382;9.752;2024-01-30T17:18:03;17.23;;;10.87;;
9467;SDS011;4772;52.382;9.752;2024-01-30T17:20:29;14.20;;;10.30;;
9467;SDS011;4772;52.382;9.752;2024-01-30T17:22:55;13.07;;;10.60;;
9467;SDS011;4772;52.382;9.752;2024-01-30T17:25:21;15.03;;;10.27;;
9467;SDS011;4772;52.382;9.752;2024-01-30T17:27:48;15.23;;;10.40;;
9467;SDS011;4772;52.382;9.752;2024-01-30T17:30:19;14.03;;;11.03;;
9467;SDS011;4772;52.382;9.752;2024-01-30T17:32:46;14.40;;;10.67;;
9467;SDS011;4772;52.382;9.752;2024-01-30T17:35:12;14.33;;;10.07;;
9467;SDS011;4772;52.382;9.752;2024-01-30T17:37:38;12.30;;;11.03;;
9467;SDS011;4772;52.382;9.752;2024-01-30T17:40:05;15.17;;;9.80;;
9467;SDS011;4772;52.382;9.752;2024-01-30T17:42:31;14.77;;;11.23;;
9467;SDS011;4772;52.382;9.752;2024-01-30T17:44:58;15.50;;;11.13;;
9467;SDS011;4772;52.382;9.752;2024-01-30T17:47:25;15.20;;;10.70;;
9467;SDS011;4772;52.382;9.752;2024-01-30T17:49:51;15.43;;;10.53;;
9467;SDS011;4772;52.382;9.752;2024-01-30T17:52:17;14.90;;;11.73;;
9467;SDS011;4772;52.382;9.752;2024-01-30T17:54:43;14.00;;;11.13;;
9467;SDS011;4772;52.382;9.752;2024-01-30T17:57:09;15.43;;;10.80;;
9467;SDS011;4772;52.382;9.752;2024-01-30T17:59:36;15.90;;;11.13;;
9467;SDS011;4772;52.382;9.752;2024-01-30T18:02:02;13.53;;;10.50;;
9467;SDS011;4772;52.382;9.752;2024-01-30T18:04:28;15.63;;;11.20;;
9467;SDS011;4772;52.382;9.752;2024-01-30T18:06:54;14.10;;;11.10;;
9467;SDS011;4772;52.382;9.752;2024-01-30T18:09:21;24.80;;;16.83;;
9467;SDS011;4772;52.382;9.752;2024-01-30T18:11:47;16.73;;;11.47;;
9467;SDS011;4772;52.382;9.752;2024-01-30T18:14:13;16.13;;;11.90;;
9467;SDS011;4772;52.382;9.752;2024-01-30T18:16:39;18.87;;;13.87;;
9467;SDS011;4772;52.382;9.752;2024-01-30T18:19:05;20.27;;;13.90;;
9467;SDS011;4772;52.382;9.752;2024-01-30T18:21:31;18.63;;;14.27;;
9467;SDS011;4772;52.382;9.752;2024-01-30T18:23:57;18.70;;;13.90;;
9467;SDS011;4772;52.382;9.752;2024-01-30T18:26:23;19.77;;;14.67;;
9467;SDS011;4772;52.382;9.752;2024-01-30T18:28:51;17.03;;;13.50;;
9467;SDS011;4772;52.382;9.752;2024-01-30T18:31:20;14.67;;;12.87;;
9467;SDS011;4772;52.382;9.752;2024-01-30T18:33:46;15.43;;;12.70;;
9467;SDS011;4772;52.382;9.752;2024-01-30T18:36:16;15.27;;;12.03;;
9467;SDS011;4772;52.382;9.752;2024-01-30T18:38:42;13.50;;;11.27;;
9467;SDS011;4772;52.382;9.752;2024-01-30T18:41:08;15.47;;;12.73;;
9467;SDS011;4772;52.382;9.752;2024-01-30T18:43:34;17.93;;;12.57;;
9467;SDS011;4772;52.382;9.752;2024-01-30T18:46:00;15.03;;;11.87;;
9467;SDS011;4772;52.382;9.752;2024-01-30T18:48:27;14.27;;;11.37;;
9467;SDS011;4772;52.382;9.752;2024-01-30T18:50:53;14.67;;;11.50;;
9467;SDS011;4772;52.382;9.752;2024-01-30T18:53:22;13.23;;;11.20;;
9467;SDS011;4772;52.382;9.752;2024-01-30T18:55:48;16.60;;;10.57;;
9467;SDS011;4772;52.382;9.752;2024-01-30T18:58:14;11.83;;;9.07;;
9467;SDS011;4772;52.382;9.752;2024-01-30T19:00:40;12.83;;;8.33;;
9467;SDS011;4772;52.382;9.752;2024-01-30T19:03:07;9.03;;;7.17;;
9467;SDS011;4772;52.382;9.752;2024-01-30T19:05:33;11.13;;;7.40;;
9467;SDS011;4772;52.382;9.752;2024-01-30T19:07:59;9.37;;;6.60;;
9467;SDS011;4772;52.382;9.752;2024-01-30T19:10:25;8.03;;;5.60;;
9467;SDS011;4772;52.382;9.752;2024-01-30T19:12:52;7.70;;;5.00;;
9467;SDS011;4772;52.382;9.752;2024-01-30T19:15:18;5.17;;;4.67;;
9467;SDS011;4772;52.382;9.752;2024-01-30T19:17:44;6.10;;;4.33;;
9467;SDS011;4772;52.382;9.752;2024-01-30T19:20:10;4.47;;;4.00;;
9467;SDS011;4772;52.382;9.752;2024-01-30T19:22:36;5.33;;;3.70;;
9467;SDS011;4772;52.382;9.752;2024-01-30T19:25:02;7.70;;;4.37;;
9467;SDS011;4772;52.382;9.752;2024-01-30T19:27:30;5.43;;;4.23;;
9467;SDS011;4772;52.382;9.752;2024-01-30T19:29:56;4.83;;;3.57;;
9467;SDS011;4772;52.382;9.752;2024-01-30T19:32:22;4.33;;;3.87;;
9467;SDS011;4772;52.382;9.752;2024-01-30T19:34:49;6.40;;;4.20;;
9467;SDS011;4772;52.382;9.752;2024-01-30T19:37:15;4.77;;;3.40;;
9467;SDS011;4772;52.382;9.752;2024-01-30T19:39:42;5.10;;;3.60;;
9467;SDS011;4772;52.382;9.752;2024-01-30T19:42:12;5.37;;;4.07;;
9467;SDS011;4772;52.382;9.752;2024-01-30T19:44:38;5.27;;;4.00;;
9467;SDS011;4772;52.382;9.752;2024-01-30T19:47:04;6.37;;;3.50;;
9467;SDS011;4772;52.382;9.752;2024-01-30T19:49:34;5.80;;;3.77;;
9467;SDS011;4772;52.382;9.752;2024-01-30T19:52:01;5.03;;;3.70;;
9467;SDS011;4772;52.382;9.752;2024-01-30T19:54:29;3.83;;;3.40;;
9467;SDS011;4772;52.382;9.752;2024-01-30T19:56:55;5.70;;;3.90;;
9467;SDS011;4772;52.382;9.752;2024-01-30T19:59:21;6.43;;;3.63;;
9467;SDS011;4772;52.382;9.752;2024-01-30T20:01:47;5.20;;;3.23;;
9467;SDS011;4772;52.382;9.752;2024-01-30T20:04:13;5.10;;;3.47;;
9467;SDS011;4772;52.382;9.752;2024-01-30T20:06:43;3.47;;;3.17;;
9467;SDS011;4772;52.382;9.752;2024-01-30T20:09:09;5.50;;;3.83;;
9467;SDS011;4772;52.382;9.752;2024-01-30T20:11:35;3.97;;;3.40;;
9467;SDS011;4772;52.382;9.752;2024-01-30T20:14:05;5.00;;;3.70;;
9467;SDS011;4772;52.382;9.752;2024-01-30T20:16:37;5.10;;;3.27;;
9467;SDS011;4772;52.382;9.752;2024-01-30T20:19:04;6.43;;;3.60;;
9467;SDS011;4772;52.382;9.752;2024-01-30T20:21:30;6.60;;;3.27;;
9467;SDS011;4772;52.382;9.752;2024-01-30T20:23:57;4.90;;;3.40;;
9467;SDS011;4772;52.382;9.752;2024-01-30T20:26:23;4.37;;;3.53;;
9467;SDS011;4772;52.382;9.752;2024-01-30T20:28:49;5.33;;;3.57;;
9467;SDS011;4772;52.382;9.752;2024-01-30T20:31:22;3.77;;;3.37;;
9467;SDS011;4772;52.382;9.752;2024-01-30T20:33:48;4.00;;;3.27;;
9467;SDS011;4772;52.382;9.752;2024-01-30T20:36:15;3.70;;;3.23;;
9467;SDS011;4772;52.382;9.752;2024-01-30T20:38:41;5.40;;;3.70;;
9467;SDS011;4772;52.382;9.752;2024-01-30T20:41:07;4.80;;;4.00;;
9467;SDS011;4772;52.382;9.752;2024-01-30T20:43:36;3.87;;;3.43;;
9467;SDS011;4772;52.382;9.752;2024-01-30T20:46:02;5.60;;;3.70;;
9467;SDS011;4772;52.382;9.752;2024-01-30T20:48:28;6.87;;;4.23;;
9467;SDS011;4772;52.382;9.752;2024-01-30T20:50:54;5.17;;;3.80;;
9467;SDS011;4772;52.382;9.752;2024-01-30T20:53:20;5.23;;;3.77;;
9467;SDS011;4772;52.382;9.752;2024-01-30T20:55:46;4.97;;;3.87;;
9467;SDS011;4772;52.382;9.752;2024-01-30T20:58:12;5.10;;;3.93;;
9467;SDS011;4772;52.382;9.752;2024-01-30T21:00:38;7.50;;;3.90;;
9467;SDS011;4772;52.382;9.752;2024-01-30T21:03:04;6.27;;;3.60;;
9467;SDS011;4772;52.382;9.752;2024-01-30T21:05:30;3.93;;;3.50;;
9467;SDS011;4772;52.382;9.752;2024-01-30T21:07:56;5.93;;;4.00;;
9467;SDS011;4772;52.382;9.752;2024-01-30T21:10:22;5.67;;;3.77;;
9467;SDS011;4772;52.382;9.752;2024-01-30T21:12:48;5.67;;;4.30;;
9467;SDS011;4772;52.382;9.752;2024-01-30T21:15:14;4.73;;;4.30;;
9467;SDS011;4772;52.382;9.752;2024-01-30T21:17:40;4.50;;;4.10;;
9467;SDS011;4772;52.382;9.752;2024-01-30T21:20:06;5.77;;;4.27;;
9467;SDS011;4772;52.382;9.752;2024-01-30T21:22:32;6.10;;;4.27;;
9467;SDS011;4772;52.382;9.752;2024-01-30T21:24:59;5.23;;;4.73;;
9467;SDS011;4772;52.382;9.752;2024-01-30T21:27:25;5.83;;;4.37;;
9467;SDS011;4772;52.382;9.752;2024-01-30T21:29:51;5.63;;;4.50;;
9467;SDS011;4772;52.382;9.752;2024-01-30T21:32:17;6.10;;;4.57;;
9467;SDS011;4772;52.382;9.752;2024-01-30T21:34:43;4.90;;;4.37;;
9467;SDS011;4772;52.382;9.752;2024-01-30T21:37:09;5.43;;;4.50;;
9467;SDS011;4772;52.382;9.752;2024-01-30T21:39:35;5.90;;;4.40;;
9467;SDS011;4772;52.382;9.752;2024-01-30T21:42:02;5.97;;;4.73;;
9467;SDS011;4772;52.382;9.752;2024-01-30T21:44:28;7.30;;;4.73;;
9467;SDS011;4772;52.382;9.752;2024-01-30T21:46:54;7.80;;;4.77;;
9467;SDS011;4772;52.382;9.752;2024-01-30T21:49:20;5.77;;;4.97;;
9467;SDS011;4772;52.382;9.752;2024-01-30T21:51:46;5.27;;;4.77;;
9467;SDS011;4772;52.382;9.752;2024-01-30T21:54:15;5.70;;;5.13;;
9467;SDS011;4772;52.382;9.752;2024-01-30T21:56:41;7.33;;;5.00;;
9467;SDS011;4772;52.382;9.752;2024-01-30T21:59:07;6.63;;;5.10;;